ZBTJ/TSN METAR and TAF weather

Enter ICAO airport designator
Station Type Date Time Source
ZBTJ METAR 2021/05/12 02:00 UTC NOAA

ZBTJ 120200Z VRB01MPS CAVOK 21/12 Q1011 NOSIG


Station Type Date Time Source
ZBTJ Decoded METAR 2021/05/12 02:00 UTC NOAA

Tianjin / Zhangguizhu, China (ZBTJ) 39-11N 117-21E
May 11, 2021 - 10:00 PM EDT / 2021.05.12 0200 UTC
Wind: Variable at 2 MPH (2 KT):0
Visibility: greater than 7 mile(s):0
Temperature: 69 F (21 C)
Dew Point: 53 F (12 C)
Relative Humidity: 56%
Pressure (altimeter): 29.85 in. Hg (1011 hPa)
ob: ZBTJ 120200Z VRB01MPS CAVOK 21/12 Q1011 NOSIG
cycle: 2

Station Type Date Time Source
ZBTJ TAF 2021/05/11 18:03 UTC NOAA

TAF ZBTJ 111501Z 1118/1218 13003MPS 5000 BR NSC TX26/1207Z TN10/1121Z

Example: see airport list